createdAt,value
2018-12-14T00:00:11.894Z,101197.02
2018-12-14T00:02:39.455Z,101202.14
2018-12-14T00:05:07.008Z,101204.78
2018-12-14T00:07:34.565Z,101191.09
2018-12-14T00:10:02.087Z,101190.36
2018-12-14T00:12:29.571Z,101185.50
2018-12-14T00:14:57.071Z,101192.05
2018-12-14T00:17:24.537Z,101193.78
2018-12-14T00:19:52.114Z,101198.00
2018-12-14T00:22:19.657Z,101197.81
2018-12-14T00:24:47.119Z,101190.38
2018-12-14T00:27:14.733Z,101198.66
2018-12-14T00:29:42.379Z,101197.22
2018-12-14T00:32:10.369Z,101202.42
2018-12-14T00:34:37.879Z,101198.88
2018-12-14T00:37:05.342Z,101206.00
2018-12-14T00:39:32.813Z,101205.94
2018-12-14T00:42:00.331Z,101201.04
2018-12-14T00:44:27.805Z,101203.56
2018-12-14T00:46:55.389Z,101208.52
2018-12-14T00:49:22.885Z,101203.01
2018-12-14T00:51:51.089Z,101205.59
2018-12-14T00:54:18.606Z,101203.20
2018-12-14T00:56:46.070Z,101216.39
2018-12-14T00:59:14.138Z,101220.17
2018-12-14T01:01:41.683Z,101224.66
2018-12-14T01:04:09.227Z,101231.08
2018-12-14T01:06:36.719Z,101231.98
2018-12-14T01:09:05.379Z,101232.02
2018-12-14T01:11:32.886Z,101230.81
2018-12-14T01:14:00.478Z,101235.62
2018-12-14T01:16:27.959Z,101232.78
2018-12-14T01:18:55.425Z,101234.52
2018-12-14T01:21:22.937Z,101239.91
2018-12-14T01:23:50.413Z,101243.83
2018-12-14T01:26:18.058Z,101240.48
2018-12-14T01:28:46.146Z,101248.25
2018-12-14T01:31:13.685Z,101253.42
2018-12-14T01:33:41.184Z,101248.59
2018-12-14T01:36:08.643Z,101250.02
2018-12-14T01:38:36.105Z,101243.97
2018-12-14T01:41:03.621Z,101245.35
2018-12-14T01:43:31.114Z,101248.31
2018-12-14T01:45:58.579Z,101247.66
2018-12-14T01:48:26.053Z,101242.86
2018-12-14T01:50:53.520Z,101250.63
2018-12-14T01:53:21.066Z,101246.49
2018-12-14T01:55:48.534Z,101248.52
2018-12-14T01:58:16.051Z,101245.17
2018-12-14T02:00:43.555Z,101245.08
2018-12-14T02:03:11.070Z,101251.13
2018-12-14T02:05:38.539Z,101249.86
2018-12-14T02:08:06.039Z,101250.27
2018-12-14T02:10:33.543Z,101251.03
2018-12-14T02:13:01.014Z,101249.92
2018-12-14T02:15:28.473Z,101246.69
2018-12-14T02:17:56.273Z,101246.28
2018-12-14T02:20:23.785Z,101245.87
2018-12-14T02:22:51.265Z,101241.02
2018-12-14T02:25:18.729Z,101238.56
2018-12-14T02:27:46.577Z,101234.88
2018-12-14T02:30:25.907Z,101235.19
2018-12-14T02:32:53.391Z,101234.49
2018-12-14T02:35:20.868Z,101229.33
2018-12-14T02:37:48.364Z,101230.50
2018-12-14T02:40:15.937Z,101229.23
2018-12-14T02:42:44.376Z,101226.59
2018-12-14T02:45:11.929Z,101230.00
2018-12-14T02:47:39.436Z,101229.52
2018-12-14T02:50:07.007Z,101222.63
2018-12-14T02:52:34.491Z,101222.86
2018-12-14T02:55:02.022Z,101230.98
2018-12-14T02:57:30.480Z,101229.84
2018-12-14T02:59:57.949Z,101226.00
2018-12-14T03:02:25.512Z,101226.06
2018-12-14T03:04:53.068Z,101222.09
2018-12-14T03:07:20.525Z,101226.85
2018-12-14T03:09:48.041Z,101222.16
2018-12-14T03:12:15.610Z,101229.41
2018-12-14T03:14:43.089Z,101231.45
2018-12-14T03:17:10.654Z,101229.91
2018-12-14T03:19:38.193Z,101229.09
2018-12-14T03:22:05.684Z,101227.39
2018-12-14T03:24:33.150Z,101229.56
2018-12-14T03:27:00.676Z,101222.28
2018-12-14T03:29:28.159Z,101229.84
2018-12-14T03:31:55.706Z,101229.59
2018-12-14T03:34:23.207Z,101231.45
2018-12-14T03:36:50.686Z,101233.63
2018-12-14T03:39:18.133Z,101227.99
2018-12-14T03:41:46.072Z,101231.64
2018-12-14T03:44:13.587Z,101227.30
2018-12-14T03:46:42.204Z,101232.40
2018-12-14T03:49:09.774Z,101228.91
2018-12-14T03:51:37.336Z,101233.91
2018-12-14T03:54:04.809Z,101234.34
2018-12-14T03:56:32.535Z,101236.18
2018-12-14T03:59:00.037Z,101237.34
2018-12-14T04:01:27.620Z,101240.37
2018-12-14T04:03:55.197Z,101235.27
2018-12-14T04:06:23.735Z,101227.27
2018-12-14T04:08:51.394Z,101228.40
2018-12-14T04:11:18.968Z,101227.61
2018-12-14T04:13:46.457Z,101229.31
2018-12-14T04:16:13.952Z,101230.66
2018-12-14T04:18:42.114Z,101227.45
2018-12-14T04:21:09.596Z,101226.00
2018-12-14T04:23:39.020Z,101226.95
2018-12-14T04:26:06.482Z,101235.20
2018-12-14T04:28:34.323Z,101227.48
2018-12-14T04:31:01.837Z,101230.57
2018-12-14T04:33:29.762Z,101226.00
2018-12-14T04:35:57.353Z,101224.64
2018-12-14T04:38:24.896Z,101229.68
2018-12-14T04:40:52.486Z,101230.69
2018-12-14T04:43:19.983Z,101222.00
2018-12-14T04:45:47.451Z,101229.27
2018-12-14T04:48:15.451Z,101226.12
2018-12-14T04:50:43.411Z,101226.87
2018-12-14T04:53:11.047Z,101230.30
2018-12-14T04:55:38.518Z,101226.87
2018-12-14T04:58:05.996Z,101230.24
2018-12-14T05:00:33.620Z,101230.25
2018-12-14T05:03:01.161Z,101232.73
2018-12-14T05:05:28.665Z,101223.86
2018-12-14T05:07:56.168Z,101230.70
2018-12-14T05:10:23.657Z,101234.28
2018-12-14T05:12:56.062Z,101232.89
2018-12-14T05:15:20.723Z,101230.20
2018-12-14T05:17:48.212Z,101233.33
2018-12-14T05:20:15.764Z,101231.36
2018-12-14T05:22:43.271Z,101232.82
2018-12-14T05:25:10.779Z,101231.97
2018-12-14T05:27:38.280Z,101236.09
2018-12-14T05:30:07.324Z,101230.47
2018-12-14T05:32:34.822Z,101228.64
2018-12-14T05:35:02.408Z,101226.02
2018-12-14T05:37:29.895Z,101228.56
2018-12-14T05:39:57.393Z,101229.31
2018-12-14T05:42:24.917Z,101224.17
2018-12-14T05:44:52.423Z,101224.04
2018-12-14T05:47:19.923Z,101224.00
2018-12-14T05:49:47.893Z,101224.72
2018-12-14T05:52:15.976Z,101223.35
2018-12-14T05:54:43.455Z,101226.37
2018-12-14T05:57:11.020Z,101226.72
2018-12-14T05:59:38.509Z,101225.30
2018-12-14T06:02:06.019Z,101226.96
2018-12-14T06:04:33.497Z,101228.96
2018-12-14T06:07:00.993Z,101234.59
2018-12-14T06:09:28.492Z,101239.25
2018-12-14T06:11:55.995Z,101246.06
2018-12-14T06:14:23.479Z,101245.55
2018-12-14T06:16:50.958Z,101248.68
2018-12-14T06:19:18.439Z,101247.50
2018-12-14T06:21:45.971Z,101250.34
2018-12-14T06:24:13.463Z,101254.86
2018-12-14T06:26:41.003Z,101260.75
2018-12-14T06:29:08.463Z,101253.64
2018-12-14T06:31:35.935Z,101257.75
2018-12-14T06:34:03.389Z,101258.64
2018-12-14T06:36:30.833Z,101255.05
2018-12-14T06:38:58.294Z,101253.89
2018-12-14T06:41:25.770Z,101259.48
2018-12-14T06:43:53.233Z,101263.59
2018-12-14T06:46:20.773Z,101260.85
2018-12-14T06:48:48.272Z,101269.21
2018-12-14T06:51:15.749Z,101266.18
2018-12-14T06:53:43.204Z,101276.42
2018-12-14T06:56:10.658Z,101278.46
2018-12-14T06:58:38.560Z,101281.56
2018-12-14T07:01:06.031Z,101285.74
2018-12-14T07:03:33.583Z,101292.51
2018-12-14T07:06:01.044Z,101300.09
2018-12-14T07:08:28.503Z,101290.77
2018-12-14T07:10:55.975Z,101299.98
2018-12-14T07:13:23.444Z,101303.28
2018-12-14T07:15:50.991Z,101298.73
2018-12-14T07:18:18.525Z,101297.65
2018-12-14T07:20:46.007Z,101301.31
2018-12-14T07:23:14.420Z,101302.23
2018-12-14T07:25:41.872Z,101302.16
2018-12-14T07:28:09.361Z,101308.05
2018-12-14T07:30:36.873Z,101307.53
2018-12-14T07:33:04.447Z,101305.88
2018-12-14T07:35:31.903Z,101302.84
2018-12-14T07:37:59.361Z,101308.20
2018-12-14T07:40:26.892Z,101305.88
2018-12-14T07:42:54.371Z,101313.42
2018-12-14T07:45:21.838Z,101314.94
2018-12-14T07:47:49.288Z,101315.82
2018-12-14T07:50:16.859Z,101326.52
2018-12-14T07:52:44.314Z,101328.83
2018-12-14T07:55:11.779Z,101334.45
2018-12-14T07:57:39.290Z,101338.67
2018-12-14T08:00:07.939Z,101339.70
2018-12-14T08:02:35.443Z,101345.28
2018-12-14T08:05:03.418Z,101343.21
2018-12-14T08:07:30.888Z,101353.45
2018-12-14T08:09:58.336Z,101362.67
2018-12-14T08:12:25.807Z,101362.75
2018-12-14T08:14:53.283Z,101361.77
2018-12-14T08:17:20.737Z,101361.95
2018-12-14T08:19:48.176Z,101363.02
2018-12-14T08:22:15.659Z,101362.87
2018-12-14T08:24:43.121Z,101367.71
2018-12-14T08:27:10.575Z,101371.83
2018-12-14T08:29:38.059Z,101372.66
2018-12-14T08:32:05.606Z,101369.30
2018-12-14T08:34:33.127Z,101373.84
2018-12-14T08:37:00.649Z,101380.38
2018-12-14T08:39:28.113Z,101377.12
2018-12-14T08:41:55.581Z,101378.82
2018-12-14T08:44:23.053Z,101383.69
2018-12-14T08:46:50.500Z,101380.62
2018-12-14T08:49:17.957Z,101385.77
2018-12-14T08:51:45.412Z,101388.55
2018-12-14T08:54:12.915Z,101389.95
2018-12-14T08:56:40.409Z,101388.43
2018-12-14T08:59:07.884Z,101394.07
2018-12-14T09:01:35.334Z,101397.59
2018-12-14T09:04:02.781Z,101403.47
2018-12-14T09:06:30.253Z,101403.53
2018-12-14T09:08:57.697Z,101406.77
2018-12-14T09:11:25.181Z,101409.26
2018-12-14T09:13:52.716Z,101401.64
2018-12-14T09:16:20.174Z,101403.81
2018-12-14T09:18:48.408Z,101407.84
2018-12-14T09:21:15.873Z,101408.00
2018-12-14T09:23:43.328Z,101406.30
2018-12-14T09:26:10.864Z,101401.43
2018-12-14T09:28:38.821Z,101399.45
2018-12-14T09:31:06.261Z,101400.84
2018-12-14T09:33:33.721Z,101405.76
2018-12-14T09:36:01.173Z,101399.70
2018-12-14T09:38:28.647Z,101403.81
2018-12-14T09:40:57.096Z,101411.75
2018-12-14T09:43:24.536Z,101407.02
2018-12-14T09:45:52.013Z,101411.38
2018-12-14T09:48:19.488Z,101410.25
2018-12-14T09:50:46.988Z,101409.61
2018-12-14T09:53:14.465Z,101409.47
2018-12-14T09:55:41.905Z,101416.89
2018-12-14T09:58:09.390Z,101416.63
2018-12-14T10:00:36.887Z,101416.34
2018-12-14T10:03:04.351Z,101417.61
2018-12-14T10:05:31.895Z,101421.93
2018-12-14T10:07:59.405Z,101422.13
2018-12-14T10:10:26.848Z,101417.80
2018-12-14T10:12:54.305Z,101416.61
2018-12-14T10:15:21.762Z,101422.88
2018-12-14T10:17:49.891Z,101413.75
2018-12-14T10:20:17.406Z,101418.35
2018-12-14T10:22:44.853Z,101415.97
2018-12-14T10:25:12.315Z,101419.87
2018-12-14T10:27:39.771Z,101415.35
2018-12-14T10:30:09.351Z,101413.59
2018-12-14T10:32:36.843Z,101421.14
2018-12-14T10:35:07.296Z,101411.39
2018-12-14T10:37:34.763Z,101413.59
2018-12-14T10:40:02.274Z,101410.14
2018-12-14T10:42:29.728Z,101408.70
2018-12-14T10:44:57.174Z,101410.21
2018-12-14T10:47:24.635Z,101411.62
2018-12-14T10:49:52.069Z,101413.51
2018-12-14T10:52:19.768Z,101412.38
2018-12-14T10:54:47.635Z,101411.73
2018-12-14T10:57:16.280Z,101406.27
2018-12-14T10:59:44.648Z,101406.47
2018-12-14T11:02:12.171Z,101407.80
2018-12-14T11:04:39.629Z,101403.26
2018-12-14T11:07:07.104Z,101407.17
2018-12-14T11:09:34.613Z,101405.91
2018-12-14T11:12:02.127Z,101404.75
2018-12-14T11:14:29.579Z,101408.32
2018-12-14T11:16:57.054Z,101408.17
2018-12-14T11:19:24.511Z,101420.91
2018-12-14T11:21:51.976Z,101411.83
2018-12-14T11:24:20.055Z,101410.58
2018-12-14T11:26:47.535Z,101411.95
2018-12-14T11:29:15.007Z,101416.65
2018-12-14T11:31:42.475Z,101411.03
2018-12-14T11:34:10.217Z,101412.20
2018-12-14T11:36:37.683Z,101414.08
2018-12-14T11:39:06.249Z,101412.89
2018-12-14T11:41:33.761Z,101412.77
2018-12-14T11:44:01.219Z,101406.34
2018-12-14T11:46:28.714Z,101405.44
2018-12-14T11:48:56.221Z,101404.67
2018-12-14T11:51:23.707Z,101405.19
2018-12-14T11:53:51.175Z,101410.69
2018-12-14T11:56:18.627Z,101405.19
2018-12-14T11:58:46.112Z,101407.93
2018-12-14T12:01:13.616Z,101404.08
2018-12-14T12:03:42.859Z,101402.63
2018-12-14T12:06:10.555Z,101407.83
2018-12-14T12:08:38.024Z,101408.15
2018-12-14T12:11:05.482Z,101407.58
2018-12-14T12:13:32.917Z,101403.58
2018-12-14T12:16:00.382Z,101407.70
2018-12-14T12:18:27.848Z,101407.23
2018-12-14T12:20:55.326Z,101404.05
2018-12-14T12:23:22.788Z,101405.41
2018-12-14T12:25:50.324Z,101401.46
2018-12-14T12:28:18.174Z,101405.88
2018-12-14T12:30:45.621Z,101399.61
2018-12-14T12:33:13.092Z,101399.89
2018-12-14T12:35:40.656Z,101398.22
2018-12-14T12:38:08.115Z,101397.02
2018-12-14T12:40:35.596Z,101389.80
2018-12-14T12:43:03.052Z,101396.80
2018-12-14T12:45:30.507Z,101391.19
2018-12-14T12:47:59.454Z,101391.84
2018-12-14T12:50:26.946Z,101396.33
2018-12-14T12:52:54.475Z,101394.72
2018-12-14T12:55:24.963Z,101394.02
2018-12-14T12:57:52.624Z,101392.57
2018-12-14T13:00:20.894Z,101391.16
2018-12-14T13:02:52.346Z,101388.09
2018-12-14T13:05:21.708Z,101392.01
2018-12-14T13:07:49.303Z,101395.28
2018-12-14T13:10:17.330Z,101390.37
2018-12-14T13:12:49.514Z,101388.50
2018-12-14T13:15:17.620Z,101388.00
2018-12-14T13:17:45.102Z,101394.62
2018-12-14T13:20:12.560Z,101393.27
2018-12-14T13:22:40.091Z,101391.19
2018-12-14T13:25:10.341Z,101392.10
2018-12-14T13:27:37.849Z,101390.62
2018-12-14T13:30:12.012Z,101391.66
2018-12-14T13:32:39.880Z,101394.24
2018-12-14T13:35:08.439Z,101394.62
2018-12-14T13:37:39.504Z,101403.36
2018-12-14T13:40:07.261Z,101399.80
2018-12-14T13:42:34.875Z,101408.98
2018-12-14T13:45:06.486Z,101405.99
2018-12-14T13:47:35.402Z,101414.78
2018-12-14T13:50:05.853Z,101410.70
2018-12-14T13:52:33.374Z,101418.20
2018-12-14T13:55:00.857Z,101422.64
2018-12-14T13:57:28.418Z,101421.79
2018-12-14T13:59:55.939Z,101418.38
2018-12-14T14:02:24.299Z,101425.77
2018-12-14T14:04:51.823Z,101427.33
2018-12-14T14:07:19.453Z,101427.38
2018-12-14T14:09:47.100Z,101437.25
2018-12-14T14:12:14.654Z,101432.64
2018-12-14T14:14:42.177Z,101442.80
2018-12-14T14:17:09.669Z,101440.89
2018-12-14T14:19:37.612Z,101445.91
2018-12-14T14:22:05.547Z,101451.63
2018-12-14T14:24:33.070Z,101451.66
2018-12-14T14:27:00.549Z,101452.55
2018-12-14T14:29:28.062Z,101447.16
2018-12-14T14:31:55.524Z,101456.91
2018-12-14T14:34:23.559Z,101456.50
2018-12-14T14:36:51.097Z,101455.92
2018-12-14T14:39:18.557Z,101459.46
2018-12-14T14:41:46.617Z,101465.94
2018-12-14T14:44:14.092Z,101464.98
2018-12-14T14:46:41.555Z,101462.62
2018-12-14T14:49:09.102Z,101469.10
2018-12-14T14:51:36.647Z,101474.08
2018-12-14T14:54:04.170Z,101471.66
2018-12-14T14:56:31.638Z,101473.47
2018-12-14T14:58:59.100Z,101477.01
2018-12-14T15:01:26.621Z,101477.17
2018-12-14T15:03:54.575Z,101479.22
2018-12-14T15:06:22.029Z,101483.55
2018-12-14T15:08:50.163Z,101483.48
2018-12-14T15:11:17.600Z,101481.64
2018-12-14T15:13:45.056Z,101481.81
2018-12-14T15:16:12.872Z,101480.98
2018-12-14T15:18:41.025Z,101490.87
2018-12-14T15:21:08.585Z,101489.20
2018-12-14T15:23:36.084Z,101488.69
2018-12-14T15:26:05.307Z,101488.18
2018-12-14T15:28:32.800Z,101493.16
2018-12-14T15:31:00.303Z,101491.38
2018-12-14T15:33:27.777Z,101496.87
2018-12-14T15:35:55.413Z,101500.41
2018-12-14T15:38:22.949Z,101501.33
2018-12-14T15:40:50.423Z,101504.77
2018-12-14T15:43:17.899Z,101503.89
2018-12-14T15:45:45.471Z,101509.13
2018-12-14T15:48:13.025Z,101505.76
2018-12-14T15:50:40.607Z,101508.96
2018-12-14T15:53:08.129Z,101512.40
2018-12-14T15:55:36.950Z,101513.25
2018-12-14T15:58:04.561Z,101511.64
2018-12-14T16:00:32.093Z,101511.64
2018-12-14T16:02:59.564Z,101516.28
2018-12-14T16:05:28.560Z,101514.50
2018-12-14T16:07:56.032Z,101519.09
2018-12-14T16:10:23.915Z,101518.76
2018-12-14T16:12:51.404Z,101520.80
2018-12-14T16:15:20.283Z,101520.29
2018-12-14T16:17:48.165Z,101520.80
2018-12-14T16:20:16.857Z,101520.38
2018-12-14T16:22:44.423Z,101527.95
2018-12-14T16:25:11.903Z,101529.03
2018-12-14T16:27:39.994Z,101528.86
2018-12-14T16:30:09.050Z,101530.13
2018-12-14T16:32:36.548Z,101529.21
2018-12-14T16:35:05.227Z,101529.13
2018-12-14T16:37:32.717Z,101526.50
2018-12-14T16:40:00.196Z,101529.47
2018-12-14T16:42:27.722Z,101523.57
2018-12-14T16:44:55.685Z,101517.77
2018-12-14T16:47:23.222Z,101517.42
2018-12-14T16:49:51.381Z,101516.61
2018-12-14T16:52:19.207Z,101519.95
2018-12-14T16:54:46.736Z,101524.31
2018-12-14T16:57:14.304Z,101519.54
2018-12-14T16:59:41.800Z,101519.58
2018-12-14T17:02:09.326Z,101522.14
2018-12-14T17:04:36.841Z,101525.14
2018-12-14T17:07:05.900Z,101522.88
2018-12-14T17:09:33.915Z,101520.70
2018-12-14T17:12:01.404Z,101527.52
2018-12-14T17:14:28.878Z,101530.44
2018-12-14T17:16:56.610Z,101533.62
2018-12-14T17:19:24.145Z,101527.81
2018-12-14T17:21:51.623Z,101526.55
2018-12-14T17:24:19.191Z,101520.11
2018-12-14T17:26:47.285Z,101520.85
2018-12-14T17:29:15.485Z,101527.96
2018-12-14T17:31:43.514Z,101529.41
2018-12-14T17:34:11.083Z,101528.26
2018-12-14T17:36:39.038Z,101528.34
2018-12-14T17:39:06.664Z,101532.81
2018-12-14T17:41:34.316Z,101534.52
2018-12-14T17:44:02.654Z,101534.07
2018-12-14T17:46:30.136Z,101530.41
2018-12-14T17:48:58.457Z,101527.81
2018-12-14T17:51:25.925Z,101522.08
2018-12-14T17:53:53.377Z,101526.26
2018-12-14T17:56:20.860Z,101523.00
2018-12-14T17:58:48.960Z,101525.59
2018-12-14T18:01:16.582Z,101526.45
2018-12-14T18:03:44.108Z,101527.63
2018-12-14T18:06:11.674Z,101531.00
2018-12-14T18:08:39.135Z,101532.22
2018-12-14T18:11:06.603Z,101529.55
2018-12-14T18:13:34.079Z,101534.78
2018-12-14T18:16:01.633Z,101537.96
2018-12-14T18:18:29.125Z,101535.22
2018-12-14T18:20:57.193Z,101536.19
2018-12-14T18:23:24.683Z,101538.59
2018-12-14T18:25:52.237Z,101538.44
2018-12-14T18:28:19.734Z,101546.06
2018-12-14T18:30:47.267Z,101543.95
2018-12-14T18:33:14.773Z,101543.02
2018-12-14T18:35:42.291Z,101540.58
2018-12-14T18:38:09.788Z,101547.66
2018-12-14T18:40:37.914Z,101545.39
2018-12-14T18:43:05.420Z,101542.55
2018-12-14T18:45:32.927Z,101545.33
2018-12-14T18:48:00.419Z,101542.44
2018-12-14T18:50:27.936Z,101550.70
2018-12-14T18:52:55.443Z,101548.47
2018-12-14T18:55:22.958Z,101560.91
2018-12-14T18:57:50.527Z,101559.66
2018-12-14T19:00:18.162Z,101563.62
2018-12-14T19:02:45.662Z,101571.38
2018-12-14T19:05:13.206Z,101567.80
2018-12-14T19:07:40.731Z,101571.71
2018-12-14T19:10:08.257Z,101573.91
2018-12-14T19:12:35.957Z,101572.16
2018-12-14T19:15:04.363Z,101580.59
2018-12-14T19:17:31.828Z,101579.45
2018-12-14T19:20:00.017Z,101583.31
2018-12-14T19:22:27.480Z,101583.31
2018-12-14T19:24:54.963Z,101589.60
2018-12-14T19:27:22.471Z,101596.50
2018-12-14T19:29:49.980Z,101597.08
2018-12-14T19:32:17.627Z,101598.22
2018-12-14T19:34:45.114Z,101594.97
2018-12-14T19:37:12.634Z,101591.64
2018-12-14T19:39:40.117Z,101592.98
2018-12-14T19:42:07.641Z,101594.76
2018-12-14T19:44:36.175Z,101595.36
2018-12-14T19:47:03.656Z,101599.47
2018-12-14T19:49:31.677Z,101607.95
2018-12-14T19:52:00.352Z,101605.25
2018-12-14T19:54:28.157Z,101615.98
2018-12-14T19:56:56.835Z,101616.23
2018-12-14T19:59:24.793Z,101612.34
2018-12-14T20:01:52.387Z,101618.31
2018-12-14T20:04:19.868Z,101622.73
2018-12-14T20:06:57.372Z,101617.50
2018-12-14T20:09:25.494Z,101621.80
2018-12-14T20:11:53.706Z,101619.76
2018-12-14T20:14:21.168Z,101625.25
2018-12-14T20:16:48.693Z,101620.28
2018-12-14T20:19:16.666Z,101630.28
2018-12-14T20:21:45.111Z,101632.14
2018-12-14T20:24:13.096Z,101629.70
2018-12-14T20:26:40.661Z,101632.73
2018-12-14T20:29:08.175Z,101630.34
2018-12-14T20:31:36.203Z,101636.63
2018-12-14T20:34:04.316Z,101637.18
2018-12-14T20:36:31.813Z,101637.25
2018-12-14T20:38:59.510Z,101643.06
2018-12-14T20:41:27.235Z,101638.22
2018-12-14T20:43:55.017Z,101638.59
2018-12-14T20:46:22.653Z,101634.73
2018-12-14T20:48:50.967Z,101640.97
2018-12-14T20:51:19.227Z,101635.26
2018-12-14T20:53:47.433Z,101635.78
2018-12-14T20:56:15.312Z,101642.93
2018-12-14T20:58:42.859Z,101639.48
2018-12-14T21:01:10.426Z,101638.22
2018-12-14T21:03:38.505Z,101635.66
2018-12-14T21:06:05.960Z,101638.96
2018-12-14T21:08:33.920Z,101642.81
2018-12-14T21:11:01.669Z,101644.00
2018-12-14T21:13:29.218Z,101638.49
2018-12-14T21:15:57.379Z,101635.05
2018-12-14T21:18:24.854Z,101638.95
2018-12-14T21:20:52.321Z,101638.10
2018-12-14T21:23:19.808Z,101640.50
2018-12-14T21:25:47.364Z,101648.17
2018-12-14T21:28:14.889Z,101642.48
2018-12-14T21:30:42.415Z,101648.56
2018-12-14T21:33:09.880Z,101637.89
2018-12-14T21:35:37.445Z,101647.03
2018-12-14T21:38:04.942Z,101643.14
2018-12-14T21:40:32.783Z,101650.94
2018-12-14T21:43:00.284Z,101651.34
2018-12-14T21:45:27.804Z,101646.31
2018-12-14T21:47:55.313Z,101648.75
2018-12-14T21:50:22.800Z,101643.54
2018-12-14T21:52:50.307Z,101646.91
2018-12-14T21:55:17.791Z,101647.23
2018-12-14T21:57:45.395Z,101644.60
2018-12-14T22:00:13.015Z,101642.53
2018-12-14T22:02:40.601Z,101634.45
2018-12-14T22:05:08.935Z,101638.30
2018-12-14T22:07:36.410Z,101634.11
2018-12-14T22:10:05.752Z,101637.18
2018-12-14T22:12:33.436Z,101633.28
2018-12-14T22:15:01.313Z,101631.47
2018-12-14T22:17:29.338Z,101634.34
2018-12-14T22:19:56.829Z,101623.59
2018-12-14T22:22:24.674Z,101624.38
2018-12-14T22:24:52.149Z,101631.09
2018-12-14T22:27:19.620Z,101630.09
2018-12-14T22:29:47.082Z,101627.82
2018-12-14T22:32:14.527Z,101630.09
2018-12-14T22:34:41.989Z,101629.29
2018-12-14T22:37:09.473Z,101626.89
2018-12-14T22:39:37.803Z,101620.59
2018-12-14T22:42:05.689Z,101631.34
2018-12-14T22:44:33.244Z,101628.91
2018-12-14T22:47:00.841Z,101631.59
2018-12-14T22:49:28.457Z,101633.45
2018-12-14T22:51:55.910Z,101631.67
2018-12-14T22:54:23.365Z,101627.78
2018-12-14T22:56:51.648Z,101631.75
2018-12-14T22:59:19.116Z,101624.52
2018-12-14T23:01:47.997Z,101625.78
2018-12-14T23:04:15.490Z,101622.78
2018-12-14T23:06:42.978Z,101624.86
2018-12-14T23:09:10.598Z,101622.12
2018-12-14T23:11:38.057Z,101619.48
2018-12-14T23:14:06.241Z,101619.89
2018-12-14T23:16:33.703Z,101629.08
2018-12-14T23:19:02.089Z,101623.27
2018-12-14T23:21:29.607Z,101622.19
2018-12-14T23:23:57.112Z,101627.78
2018-12-14T23:26:24.629Z,101618.81
2018-12-14T23:28:52.171Z,101625.52
2018-12-14T23:31:19.641Z,101625.63
2018-12-14T23:33:47.092Z,101625.78
2018-12-14T23:36:14.560Z,101630.94
2018-12-14T23:38:42.065Z,101625.91
2018-12-14T23:41:09.567Z,101632.08
2018-12-14T23:43:37.054Z,101628.38
2018-12-14T23:46:04.678Z,101625.52
2018-12-14T23:48:32.151Z,101628.56
2018-12-14T23:50:59.609Z,101629.49
2018-12-14T23:53:27.095Z,101628.94
2018-12-14T23:55:54.545Z,101625.89
2018-12-14T23:58:22.005Z,101627.44
